Tiempo atmosférico en la estación meteorológica de Quinto, Zaragoza (205 m.)



Fecha
DESCASC
Temp. máxima en grados centígrados (hora)
DESCASC
Temp. mínima en grados centígrados (hora)
DESCASC
Temp. media en grados centígrados
DESCASC
Racha de viento máxima en m/sg (hora)
DESCASC
Velocidad máxima media en intervalos de 10 minutos(hora)
DESCASC
Precipitaciones diarias en mm
DESCASC
Precipitaciones de 00:00 a 06:00 en mm
DESCASC
Precipitaciones de 06:00 a 12:00 en mm
DESCASC
Precipitaciones de 12:00 a 18:00 en mm
DESCASC
Precipitaciones de 18:00 a 24:00 en mm
DESCASC
19-01-2020 9.7 (16:10) 3.5 (23:40) 6.6 13.89 (14:50) 9.17 (15:00) 5.6 0 5.6 0 0
18-01-2020 13.5 (15:00) 0.9 (04:40) 7.2 7.78 (23:20) 3.61 (14:30) 0 0 0 0 0
17-01-2020 16.7 (15:10) 1 (08:50) 8.9 15 (15:20) 9.17 (14:10) 0 0 0 0 0
16-01-2020 12.6 (15:20) -2 (-00:0) 5.3 3.61 (23:59) 2.5 (23:59) 0 0 0 0 0
15-01-2020 8.2 (16:30) -2.4 (-00:0) 2.9 4.72 (23:00) 2.78 (22:40) 0 0 0 0 0
14-01-2020 2 (17:20) -2.7 (-00:0) -0.4 3.89 (14:10) 2.5 (14:00) 0 0 0 0 0
13-01-2020 0.5 (17:00) -3.2 (-00:0) -1.4 3.61 (20:50) 1.94 (20:50) 0 0 0 0 0
12-01-2020 9.9 (16:10) -4.4 (08:50) 2.7 3.89 (20:50) 2.5 (18:40) 0 0 0 0 0
11-01-2020 12.3 (15:30) -0.5 (-00:0) 5.9 9.72 (13:10) 6.39 (12:40) 0 0 0 0 0
10-01-2020 12.7 (14:10) 3.2 (00:00) 7.9 13.33 (09:30) 8.61 (11:00) 0 0 0 0 0
09-01-2020 3.2 (16:40) 1.2 (00:00) 2.2 3.89 (21:10) 2.78 (21:10) 0 0 0 0 0
08-01-2020 3.8 (17:00) 1.1 (00:00) 2.4 3.61 (11:10) 2.5 (11:00) 0 0 0 0 0
07-01-2020 4.3 (15:30) 1.1 (00:00) 2.7 3.61 (01:20) 2.78 (01:20) 0 0 0 0 0
06-01-2020 3.6 (00:00) 2.3 (00:00) 2.9 5.83 (21:00) 3.33 (20:20) 0 0 0 0 0
05-01-2020 13 (16:10) -1.3 (-00:0) 5.9 4.72 (18:10) 2.5 (06:40) 0 0 0 0 0
04-01-2020 12.8 (16:30) -2.9 (-00:0) 5 7.22 (18:00) 4.72 (17:50) 0 0 0 0 0
03-01-2020 5.9 (16:00) -1.1 (-00:0) 2.4 6.67 (08:50) 4.72 (08:50) 0 0 0 0 0
02-01-2020 1.6 (00:00) 0.6 (00:00) 1.1 3.61 (20:20) 2.22 (18:40) 0 0 0 0 0
01-01-2020 2.5 (00:00) 0.8 (00:00) 1.7 5.28 (04:50) 3.33 (05:10) 0 0 0 0 0
31-12-2019 4 (15:00) 2.1 (00:00) 3 3.89 (10:00) 2.78 (06:20) 0 0 0 0 0
30-12-2019 -- (--) -- (--) -- -- (--) -- (--) -- 0 0 0 --
29-12-2019 2.7 (00:30) 1.4 (00:00) 2.1 3.33 (05:30) 2.5 (05:40) 0 0 0 0 0
28-12-2019 4 (20:40) 0.4 (00:00) 2.2 4.72 (22:00) 3.06 (21:50) 0 0 0 0 0
27-12-2019 12.7 (16:10) -0.9 (-00:0) 5.9 3.89 (20:10) 3.06 (18:40) 0 0 0 0 0
26-12-2019 16.4 (12:40) 4.6 (00:00) 10.5 14.44 (12:50) 9.44 (12:50) 0.2 0 0 0.2 0
25-12-2019 12.5 (16:00) 2.3 (00:00) 7.4 2.78 (01:40) 1.94 (01:40) 0 0 0 0 0
24-12-2019 16.1 (15:30) 2.7 (08:50) 9.4 5 (15:30) 3.33 (15:30) 0 0 0 0 0
23-12-2019 15.8 (14:10) 5.8 (00:00) 10.8 8.89 (11:30) 5.83 (11:50) 0 0 0 0 0

Gráficas

Temp. máximas Temp. mínimas Temp. medias Precipitaciones Rachas de viento máximas Velocidades máximas media en intervalos de 10 minutos

Datos horarios

Fecha y hora oficial Temperatura (ºC) Velocidad del viento (km/h) Dirección del viento Racha (km/h) Dirección de racha Precipitación (mm) Presión (hPa) Tendencia (hPa) Humedad (%)
2020-01-21 23:00:00 7.2 12 Oeste 22 Oeste 8 -- -- 95
2020-01-21 22:00:00 7.4 9 Oeste 21 Oeste 8 -- -- 94
2020-01-21 21:00:00 7.5 9 Sudoeste 31 Sur 5.4 -- -- 92
2020-01-21 20:00:00 8.7 19 Sur 31 Sur 0.8 -- -- 89
2020-01-21 19:00:00 10.3 22 Este 44 Este 0 -- -- 79
2020-01-21 18:00:00 9.9 17 Nordeste 50 Nordeste 0.2 -- -- 81
2020-01-21 17:00:00 10.2 23 Nordeste 60 Nordeste 0 -- -- 78
2020-01-21 16:00:00 9.7 22 Nordeste 53 Nordeste 0.6 -- -- 82
2020-01-21 15:00:00 9 18 Nordeste 44 Nordeste 1.4 -- -- 86
2020-01-21 14:00:00 6.3 15 Norte 41 Noroeste 0.2 -- -- 95
2020-01-21 13:00:00 4.7 24 Noroeste 38 Noroeste 0.6 -- -- 92
2020-01-21 12:00:00 4.5 18 Noroeste 35 Noroeste 1.8 -- -- 95
2020-01-21 11:00:00 3 20 Noroeste 42 Oeste 0.2 -- -- 94
2020-01-21 10:00:00 2.3 28 Noroeste 46 Noroeste 2 -- -- 94
2020-01-21 09:00:00 2.5 27 Noroeste 42 Noroeste 1.8 -- -- 94
2020-01-21 08:00:00 2.1 15 Noroeste 38 Oeste 1.8 -- -- 94
2020-01-21 07:00:00 1.5 18 Noroeste 33 Oeste 4.4 -- -- 94
2020-01-21 06:00:00 1 18 Oeste 28 Noroeste 5.6 -- -- 92
2020-01-21 05:00:00 2.5 18 Noroeste 33 Noroeste 1.8 -- -- 89
2020-01-21 04:00:00 2.5 15 Noroeste 33 Oeste 1 -- -- 89
2020-01-21 03:00:00 2.4 18 Noroeste 32 Oeste 0.8 -- -- 88
2020-01-21 02:00:00 2.3 13 Noroeste 30 Oeste 1.8 -- -- 88
2020-01-21 01:00:00 2 19 Oeste 30 Oeste 0.8 -- -- 89
2020-01-21 00:00:00 2.3 19 Oeste 32 Noroeste 1.4 -- -- 87
2020-01-20 23:00:00 2.7 12 Oeste 23 Oeste 1.2 -- -- 85
2020-01-20 22:00:00 3.9 16 Oeste 30 Oeste 0.2 -- -- 75
2020-01-20 21:00:00 4.8 11 Noroeste 35 Oeste 0 -- -- 65
2020-01-20 20:00:00 4.8 12 Noroeste 28 Oeste 0 -- -- 65
2020-01-20 19:00:00 4.6 19 Oeste 36 Noroeste 0.2 -- -- 67
2020-01-20 18:00:00 4.7 19 Oeste 32 Oeste 0.4 -- -- 68
2020-01-20 17:00:00 5.1 13 Oeste 24 Oeste 0.2 -- -- 70
2020-01-20 16:00:00 5.9 4 Noroeste 15 Norte 0 -- -- 62
2020-01-20 15:00:00 5.8 11 Oeste 25 Noroeste 0 -- -- 59
2020-01-20 14:00:00 5.2 13 Noroeste 22 Oeste 0 -- -- 58
2020-01-20 13:00:00 4.7 11 Oeste 30 Noroeste 0 -- -- 62
2020-01-20 12:00:00 4.1 13 Noroeste 30 Oeste 0 -- -- 64
2020-01-20 11:00:00 3.3 14 Oeste 30 Oeste 0 -- -- 67
2020-01-20 10:00:00 2.8 16 Oeste 28 Oeste 0 -- -- 67
2020-01-20 09:00:00 2.5 19 Noroeste 33 Oeste 0 -- -- 68
2020-01-20 08:00:00 2.4 22 Noroeste 39 Oeste 0 -- -- 68
2020-01-20 07:00:00 2.6 22 Noroeste 46 Noroeste 0 -- -- 68
2020-01-20 06:00:00 2.7 27 Noroeste 49 Noroeste 0 -- -- 68
2020-01-20 05:00:00 2.8 27 Noroeste 42 Oeste 0 -- -- 67
2020-01-20 04:00:00 2.8 27 Noroeste 44 Noroeste 0 -- -- 67
2020-01-20 03:00:00 2.8 26 Noroeste 42 Oeste 0 -- -- 67
2020-01-20 02:00:00 2.9 26 Noroeste 44 Noroeste 0 -- -- 67
2020-01-20 01:00:00 3.2 26 Noroeste 40 Noroeste 0 -- -- 65
2020-01-20 00:00:00 3.5 22 Noroeste 36 Oeste 0 -- -- 65
2020-01-19 23:00:00 3.7 19 Noroeste 37 Noroeste 0 -- -- 64
2020-01-19 22:00:00 4.4 23 Noroeste 42 Oeste 0 -- -- 62
2020-01-19 21:00:00 4.7 23 Oeste 44 Noroeste 0 -- -- 61
2020-01-19 20:00:00 5.3 25 Oeste 46 Oeste 0 -- -- 60
2020-01-19 19:00:00 6.3 27 Oeste 42 Noroeste 0 -- -- 59
2020-01-19 18:00:00 7.5 24 Oeste 45 Noroeste 0 -- -- 59
2020-01-19 17:00:00 9.1 28 Oeste 49 Oeste 0 -- -- 62
2020-01-19 16:00:00 9.5 28 Noroeste 49 Noroeste 0 -- -- 63
2020-01-19 15:00:00 8.6 33 Oeste 50 Oeste 0 -- -- 69
2020-01-19 14:00:00 8.2 27 Oeste 44 Oeste 0 -- -- 74
2020-01-19 13:00:00 7.7 23 Oeste 40 Noroeste 0 -- -- 81
2020-01-19 12:00:00 7.3 19 Noroeste 33 Noroeste 0 -- -- 93
2020-01-19 11:00:00 6.8 18 Noroeste 27 Noroeste 0.8 -- -- 95
2020-01-19 10:00:00 6.4 18 Noroeste 28 Noroeste 2.8 -- -- 95
2020-01-19 09:00:00 6.3 13 Noroeste 32 Oeste 2 -- -- 94
2020-01-19 08:00:00 6.4 15 Noroeste 30 Noroeste 0 -- -- 93
2020-01-19 07:00:00 6 17 Noroeste 32 Oeste 0 -- -- 94
2020-01-19 06:00:00 6.1 22 Noroeste 40 Oeste 0 -- -- 92
2020-01-19 05:00:00 6.3 27 Noroeste 42 Noroeste 0 -- -- 89
2020-01-19 04:00:00 6.7 24 Noroeste 40 Oeste 0 -- -- 88
2020-01-19 03:00:00 7 26 Oeste 46 Oeste 0 -- -- 85
2020-01-19 02:00:00 7.4 19 Oeste 34 Oeste 0 -- -- 83
2020-01-19 01:00:00 7.4 18 Oeste 42 Noroeste 0 -- -- 84
2020-01-19 00:00:00 7 3 Nordeste 28 Oeste 0 -- -- 88
2020-01-18 23:00:00 6.7 2 Sudeste 11 Este 0 -- -- 84
2020-01-18 22:00:00 8.1 10 Sudeste 21 Sudeste 0 -- -- 80
2020-01-18 21:00:00 8.9 7 Sudeste 18 Este 0 -- -- 76
2020-01-18 20:00:00 9.3 3 Nordeste 9 Norte 0 -- -- 73
2020-01-18 19:00:00 9.9 4 Noroeste 7 Noroeste 0 -- -- 69
2020-01-18 18:00:00 10.6 3 Este 13 Nordeste 0 -- -- 68
2020-01-18 17:00:00 11.6 6 Este 17 Este 0 -- -- 64
2020-01-18 16:00:00 12.3 10 Este 20 Nordeste 0 -- -- 60
2020-01-18 15:00:00 13.5 10 Este 22 Sudeste 0 -- -- 56
2020-01-18 14:00:00 11.9 6 Sudeste 12 Sudeste 0 -- -- 63
2020-01-18 13:00:00 10.4 3 Sudeste 8 Noroeste 0 -- -- 68
2020-01-18 12:00:00 7.3 3 Noroeste 10 Este 0 -- -- 78
2020-01-18 11:00:00 5 3 Este 10 Este 0 -- -- 87
2020-01-18 10:00:00 3.3 7 Sudeste 13 Sudoeste 0 -- -- 94
2020-01-18 09:00:00 1.3 4 Sudoeste 8 Sudeste 0 -- -- 94
2020-01-18 08:00:00 1.3 2 Sudoeste 8 Sudoeste 0 -- -- 93
2020-01-18 07:00:00 1.3 0 Calma 6 Noroeste 0 -- -- 93
2020-01-18 06:00:00 1.3 3 Noroeste 5 Noroeste 0 -- -- 93
2020-01-18 05:00:00 1.1 3 Sur 5 Sur 0 -- -- 92
2020-01-18 04:00:00 1.2 0 Calma 4 Este 0 -- -- 89
2020-01-18 03:00:00 1.8 0 Calma 9 Sudoeste 0 -- -- 86
2020-01-18 02:00:00 2.5 10 Sudoeste 17 Sudoeste 0 -- -- 85
2020-01-18 01:00:00 3.2 6 Sur 10 Sur 0 -- -- 82
2020-01-18 00:00:00 4.5 3 Nordeste 11 Noroeste 0 -- -- 80
2020-01-17 23:00:00 5.9 5 Noroeste 24 Noroeste 0 -- -- 75
2020-01-17 22:00:00 7.6 9 Oeste 25 Oeste 0 -- -- 71
2020-01-17 21:00:00 8.4 15 Oeste 24 Oeste 0 -- -- 69
2020-01-17 20:00:00 9.3 13 Oeste 26 Oeste 0 -- -- 65
2020-01-17 19:00:00 10 16 Oeste 23 Oeste 0 -- -- 65
2020-01-17 18:00:00 11.5 14 Oeste 35 Noroeste 0 -- -- 59
2020-01-17 17:00:00 13.5 23 Noroeste 39 Noroeste 0 -- -- 53
2020-01-17 16:00:00 14.6 24 Noroeste 54 Oeste 0 -- -- 52
2020-01-17 15:00:00 16.6 26 Oeste 53 Oeste 0 -- -- 46
2020-01-17 14:00:00 16 29 Oeste 49 Oeste 0 -- -- 48
2020-01-17 13:00:00 15.4 31 Oeste 50 Oeste 0 -- -- 53
2020-01-17 12:00:00 10.6 8 Este 12 Este 0 -- -- 78
2020-01-17 11:00:00 6.7 5 Este 11 Norte 0 -- -- 94
2020-01-17 10:00:00 4.1 0 Calma 10 Sur 0 -- -- 98
2020-01-17 09:00:00 1 4 Sur 8 Norte 0 -- -- 97
2020-01-17 08:00:00 2.2 7 Nordeste 13 Norte 0 -- -- 96
2020-01-17 07:00:00 2.4 9 Sudeste 13 Sudeste 0 -- -- 97
2020-01-17 06:00:00 3.6 6 Este 13 Sur 0 -- -- 96
2020-01-17 05:00:00 3.8 3 Nordeste 9 Sudeste 0 -- -- 96
2020-01-17 04:00:00 3.2 5 Oeste 11 Oeste 0 -- -- 96
2020-01-17 03:00:00 2.6 4 Nordeste 10 Sudoeste 0 -- -- 95
2020-01-17 02:00:00 2.9 4 Sudeste 13 Sudoeste 0 -- -- 95
2020-01-17 01:00:00 2.5 6 Sudeste 9 Este 0 -- -- 95
2020-01-17 00:00:00 2.3 9 Sudoeste 13 Sudoeste 0 -- -- 93
2020-01-16 23:00:00 3 3 Oeste 8 Sur 0 -- -- 93
2020-01-16 22:00:00 3.5 5 Sudeste 8 Sudeste 0 -- -- 92
2020-01-16 21:00:00 3.5 6 Oeste 10 Sudoeste 0 -- -- 89
2020-01-16 20:00:00 5.1 0 Calma 6 Sudoeste 0 -- -- 87
2020-01-16 19:00:00 7.4 3 Sudoeste 5 Sudoeste 0 -- -- 78
2020-01-16 18:00:00 10.5 3 Este 6 Este 0 -- -- 73
2020-01-16 17:00:00 10.7 4 Sudeste 11 Sudeste 0 -- -- 72
2020-01-16 16:00:00 11.6 6 Sudeste 11 Sudeste 0 -- -- 68
2020-01-16 15:00:00 11.9 8 Este 12 Este 0 -- -- 67
2020-01-16 14:00:00 10.3 2 Sudeste 12 Este 0 -- -- 73
2020-01-16 13:00:00 7 6 Este 10 Este 0 -- -- 86
2020-01-16 12:00:00 3.5 5 Este 8 Este 0 -- -- 99
2020-01-16 11:00:00 0.8 5 Este 8 Este 0 -- -- 99
2020-01-16 10:00:00 -0.6 4 Este 6 Este 0 -- -- 98
2020-01-16 09:00:00 -1.8 5 Este 9 Sudeste 0 -- -- 98
2020-01-16 08:00:00 -1.8 3 Este 7 Este 0 -- -- 97
2020-01-16 07:00:00 -1.7 3 Este 8 Sudeste 0 -- -- 97
2020-01-16 06:00:00 -1.6 4 Este 7 Este 0 -- -- 97
2020-01-16 05:00:00 -1 0 Calma 5 Sur 0 -- -- 97
2020-01-16 04:00:00 -1.3 4 Sudeste 7 Sur 0 -- -- 96
2020-01-16 03:00:00 -1 0 Calma 8 Sudeste 0 -- -- 96
2020-01-16 02:00:00 -0.5 4 Este 11 Sudoeste 0 -- -- 95
2020-01-16 01:00:00 -0.7 4 Sudoeste 9 Sudoeste 0 -- -- 94
2020-01-16 00:00:00 0.1 4 Sudoeste 12 Sur 0 -- -- 94
2020-01-15 23:00:00 0.5 10 Sudoeste 17 Sudoeste 0 -- -- 93
2020-01-15 22:00:00 1.5 3 Sudoeste 9 Norte 0 -- -- 92
2020-01-15 21:00:00 2.2 3 Sudoeste 8 Norte 0 -- -- 90
2020-01-15 20:00:00 3.3 5 Nordeste 10 Este 0 -- -- 87
2020-01-15 19:00:00 4.5 5 Este 10 Sur 0 -- -- 84
2020-01-15 18:00:00 5.7 4 Sudeste 8 Sudeste 0 -- -- 79
2020-01-15 17:00:00 7.4 5 Sudeste 11 Sudeste 0 -- -- 76
2020-01-15 16:00:00 7.3 5 Sudeste 9 Sudeste 0 -- -- 79
2020-01-15 15:00:00 5.8 4 Sudeste 12 Este 0 -- -- 89
2020-01-15 14:00:00 3.3 5 Este 11 Sudeste 0 -- -- 99
2020-01-15 13:00:00 1.8 4 Sudeste 12 Sudeste 0 -- -- 100
2020-01-15 12:00:00 0.1 7 Sudeste 10 Sudeste 0 -- -- 100
2020-01-15 11:00:00 -1.4 3 Sudeste 8 Sur 0 -- -- 99
2020-01-15 10:00:00 -1.7 4 Este 11 Sudeste 0 -- -- 99
2020-01-15 09:00:00 -1.9 4 Sudeste 11 Sur 0 -- -- 99
2020-01-15 08:00:00 -2.2 5 Sur 12 Sudeste 0 -- -- 99
2020-01-15 07:00:00 -2 6 Sur 12 Sur 0 -- -- 98
2020-01-15 06:00:00 -2 5 Sudeste 8 Sudeste 0 -- -- 98
2020-01-15 05:00:00 -1.6 3 Este 6 Nordeste 0 -- -- 98
2020-01-15 04:00:00 -1.5 3 Este 9 Sudeste 0 -- -- 98
2020-01-15 03:00:00 -1.7 4 Sur 15 Sudeste 0 -- -- 98
2020-01-15 02:00:00 -2 8 Este 13 Sudeste 0 -- -- 98
2020-01-15 01:00:00 -1.3 6 Sudeste 10 Sudeste 0 -- -- 98
2020-01-15 00:00:00 -1.4 6 Este 10 Sudeste 0 -- -- 98
2020-01-14 23:00:00 -0.8 3 Sudeste 7 Sudeste 0 -- -- 98
2020-01-14 22:00:00 -0.5 4 Este 8 Este 0 -- -- 97
2020-01-14 21:00:00 0.5 3 Sur 5 Sur 0 -- -- 98
2020-01-14 20:00:00 0.9 4 Noroeste 7 Norte 0 -- -- 97
2020-01-14 19:00:00 1 4 Este 8 Este 0 -- -- 97
2020-01-14 18:00:00 1.3 4 Este 6 Nordeste 0 -- -- 97
2020-01-14 17:00:00 1.7 6 Sudeste 14 Sur 0 -- -- 97
2020-01-14 16:00:00 1.7 8 Sudeste 13 Sur 0 -- -- 98
2020-01-14 15:00:00 1.1 7 Sudeste 14 Sur 0 -- -- 99
2020-01-14 14:00:00 0.2 9 Sudeste 13 Sudeste 0 -- -- 99
2020-01-14 13:00:00 -0.7 5 Sudeste 9 Sudeste 0 -- -- 99
2020-01-14 12:00:00 -1.6 5 Este 9 Sudeste 0 -- -- 99
2020-01-14 11:00:00 -2.2 4 Sudeste 8 Sur 0 -- -- 98
2020-01-14 10:00:00 -2.6 3 Oeste 6 Oeste 0 -- -- 98
2020-01-14 09:00:00 -2.7 3 Norte 8 Noroeste 0 -- -- 98
2020-01-14 08:00:00 -2.7 4 Oeste 9 Sudoeste 0 -- -- 98
2020-01-14 07:00:00 -2.6 3 Sudeste 7 Sur 0 -- -- 98
2020-01-14 06:00:00 -2.3 3 Norte 8 Norte 0 -- -- 98
2020-01-14 05:00:00 -2 3 Norte 8 Este 0 -- -- 98
2020-01-14 04:00:00 -1.7 5 Este 9 Este 0 -- -- 98
2020-01-14 03:00:00 -1.5 4 Sur 9 Sudoeste 0 -- -- 98
2020-01-14 02:00:00 -1.6 5 Sudoeste 10 Sudeste 0 -- -- 98
2020-01-14 01:00:00 -1.4 6 Sur 10 Sur 0 -- -- 98
2020-01-14 00:00:00 -0.9 6 Sudoeste 9 Sudeste 0 -- -- 97
2020-01-13 23:00:00 -0.6 4 Este 8 Sudeste 0 -- -- 97
2020-01-13 22:00:00 -0.3 5 Sudeste 12 Sudeste 0 -- -- 97
2020-01-13 21:00:00 0 6 Sudeste 13 Este 0 -- -- 97
2020-01-13 20:00:00 0.4 5 Sudeste 8 Sudeste 0 -- -- 97
2020-01-13 19:00:00 0.5 4 Sudeste 9 Sudeste 0 -- -- 97
2020-01-13 18:00:00 0.4 4 Sudeste 9 Sudeste 0 -- -- 97
2020-01-13 17:00:00 0.5 4 Sur 10 Sudeste 0 -- -- 97
2020-01-13 16:00:00 0.3 5 Sudeste 11 Sudeste 0 -- -- 97
2020-01-13 15:00:00 -0.2 4 Sudeste 9 Sur 0 -- -- 97
2020-01-13 14:00:00 -0.6 3 Oeste 6 Sur 0 -- -- 98
2020-01-13 13:00:00 -1.2 3 Sudoeste 7 Sudoeste 0 -- -- 98
2020-01-13 12:00:00 -1.9 2 Norte 6 Norte 0 -- -- 98
2020-01-13 11:00:00 -2.3 3 Este 7 Sudeste 0 -- -- 97
2020-01-13 10:00:00 -2.7 2 Noroeste 6 Este 0 -- -- 97
2020-01-13 09:00:00 -3 2 Noroeste 8 Este 0 -- -- 97
2020-01-13 08:00:00 -3 3 Nordeste 6 Noroeste 0 -- -- 97
2020-01-13 07:00:00 -3.1 5 Este 8 Este 0 -- -- 97
2020-01-13 06:00:00 -2.8 7 Este 11 Este 0 -- -- 96
2020-01-13 05:00:00 -2 2 Nordeste 8 Este 0 -- -- 97
2020-01-13 04:00:00 -1.8 4 Este 9 Este 0 -- -- 96
2020-01-13 03:00:00 -2.1 0 Calma 5 Sudeste 0 -- -- 96
2020-01-13 02:00:00 -1.7 4 Sur 10 Sudeste 0 -- -- 96
2020-01-13 01:00:00 -1.3 6 Sudeste 10 Sudeste 0 -- -- 95
2020-01-13 00:00:00 -1.8 5 Sudeste 9 Sudeste 0 -- -- 93
2020-01-12 23:00:00 -1.2 4 Sudeste 8 Sudeste 0 -- -- 93
2020-01-12 22:00:00 -0.6 6 Sur 8 Sur 0 -- -- 90
2020-01-12 21:00:00 1 8 Este 14 Este 0 -- -- 90
2020-01-12 20:00:00 1.8 6 Este 12 Este 0 -- -- 87
2020-01-12 19:00:00 4.1 3 Este 13 Este 0 -- -- 81
2020-01-12 18:00:00 7.4 4 Este 13 Este 0 -- -- 66
2020-01-12 17:00:00 9.5 5 Este 7 Este 0 -- -- 58
2020-01-12 16:00:00 9.7 4 Nordeste 8 Este 0 -- -- 57
2020-01-12 15:00:00 8.7 4 Norte 9 Sudeste 0 -- -- 60
2020-01-12 14:00:00 8.2 3 Sur 8 Nordeste 0 -- -- 63
2020-01-12 13:00:00 6.4 3 Sudeste 8 Nordeste 0 -- -- 71
2020-01-12 12:00:00 4.1 2 Este 5 Este 0 -- -- 83
2020-01-12 11:00:00 0.4 0 Calma 4 Sudoeste 0 -- -- 94
2020-01-12 10:00:00 -2.3 2 Sudoeste 7 Sudoeste 0 -- -- 95
2020-01-12 09:00:00 -4.2 4 Sudoeste 6 Sudoeste 0 -- -- 95
2020-01-12 08:00:00 -3.6 2 Sudeste 6 Este 0 -- -- 94
2020-01-12 07:00:00 -3.8 2 Nordeste 6 Sudoeste 0 -- -- 94
2020-01-12 06:00:00 -3.4 4 Sudoeste 6 Sudoeste 0 -- -- 93
2020-01-12 05:00:00 -3.3 0 Calma 4 Oeste 0 -- -- 93
2020-01-12 04:00:00 -3 4 Oeste 8 Sudoeste 0 -- -- 92
2020-01-12 03:00:00 -2.7 2 Sur 5 Sudoeste 0 -- -- 92
2020-01-12 02:00:00 -1.9 2 Sur 5 Sur 0 -- -- 91
2020-01-12 01:00:00 -1.2 0 Calma 6 Sudoeste 0 -- -- 89
2020-01-12 00:00:00 -0.2 2 Sur 6 Sudoeste 0 -- -- 87
2020-01-11 23:00:00 0.3 6 Sudoeste 9 Sudoeste 0 -- -- 83
2020-01-11 22:00:00 1.5 8 Sudoeste 10 Sudoeste 0 -- -- 81
2020-01-11 21:00:00 3.1 9 Sudoeste 12 Sudoeste 0 -- -- 77
2020-01-11 20:00:00 4.3 10 Sudoeste 13 Sudoeste 0 -- -- 78
2020-01-11 19:00:00 6.4 5 Oeste 8 Oeste 0 -- -- 71
2020-01-11 18:00:00 9.7 5 Noroeste 12 Noroeste 0 -- -- 62
2020-01-11 17:00:00 11.9 7 Noroeste 16 Noroeste 0 -- -- 56
2020-01-11 16:00:00 12.3 14 Noroeste 25 Noroeste 0 -- -- 53
2020-01-11 15:00:00 12.2 17 Noroeste 29 Noroeste 0 -- -- 53
2020-01-11 14:00:00 11.5 21 Noroeste 35 Oeste 0 -- -- 54
2020-01-11 13:00:00 11.1 19 Noroeste 34 Noroeste 0 -- -- 56
2020-01-11 12:00:00 9.2 5 Noroeste 11 Noroeste 0 -- -- 66
2020-01-11 11:00:00 7 3 Norte 11 Sudeste 0 -- -- 73
2020-01-11 10:00:00 4.1 6 Este 13 Sudeste 0 -- -- 85
2020-01-11 09:00:00 1.4 4 Sudeste 10 Este 0 -- -- 93
2020-01-11 08:00:00 1.5 6 Este 10 Este 0 -- -- 89
2020-01-11 07:00:00 3.5 2 Nordeste 9 Noroeste 0 -- -- 86
2020-01-11 06:00:00 4.2 6 Noroeste 11 Oeste 0 -- -- 84
2020-01-11 05:00:00 4.8 5 Noroeste 17 Noroeste 0 -- -- 82
2020-01-11 04:00:00 5.8 10 Noroeste 33 Noroeste 0 -- -- 78
2020-01-11 03:00:00 6.8 18 Noroeste 31 Noroeste 0 -- -- 75
2020-01-11 02:00:00 6.1 9 Noroeste 24 Noroeste 0 -- -- 79
2020-01-11 01:00:00 7.2 17 Noroeste 35 Noroeste 0 -- -- 76
2020-01-11 00:00:00 7.6 21 Noroeste 34 Noroeste 0 -- -- 76
2020-01-10 23:00:00 7.7 18 Noroeste 34 Noroeste 0 -- -- 75
2020-01-10 22:00:00 8 21 Noroeste 38 Oeste 0 -- -- 75
2020-01-10 21:00:00 8.3 19 Noroeste 37 Oeste 0 -- -- 74
2020-01-10 20:00:00 8.7 22 Oeste 34 Oeste 0 -- -- 72
2020-01-10 19:00:00 9.1 16 Oeste 28 Oeste 0 -- -- 73
2020-01-10 18:00:00 10 16 Oeste 30 Noroeste 0 -- -- 70
2020-01-10 17:00:00 12.1 16 Noroeste 38 Oeste 0 -- -- 62
2020-01-10 16:00:00 12.5 26 Noroeste 41 Oeste 0 -- -- 60
2020-01-10 15:00:00 12.6 28 Noroeste 48 Noroeste 0 -- -- 59
2020-01-10 14:00:00 12.5 27 Noroeste 42 Noroeste 0 -- -- 59
2020-01-10 13:00:00 11.4 25 Noroeste 43 Noroeste 0 -- -- 64
2020-01-10 12:00:00 10.6 23 Noroeste 44 Noroeste 0 -- -- 67
2020-01-10 11:00:00 9.5 31 Noroeste 46 Noroeste 0 -- -- 69
2020-01-10 10:00:00 8.7 26 Noroeste 48 Oeste 0 -- -- 71
2020-01-10 09:00:00 7.6 25 Oeste 44 Oeste 0 -- -- 76
2020-01-10 08:00:00 8.2 20 Noroeste 43 Oeste 0 -- -- 73
2020-01-10 07:00:00 7.6 12 Oeste 39 Noroeste 0 -- -- 80
2020-01-10 06:00:00 7.3 11 Noroeste 21 Oeste 0 -- -- 93
2020-01-10 05:00:00 4.2 6 Sudeste 11 Sudeste 0 -- -- 98
2020-01-10 04:00:00 4 0 Calma 7 Noroeste 0 -- -- 98
2020-01-10 03:00:00 4.2 4 Noroeste 18 Oeste 0 -- -- 98
2020-01-10 02:00:00 3.8 12 Oeste 26 Oeste 0 -- -- 99
2020-01-10 01:00:00 3.4 10 Noroeste 21 Noroeste 0 -- -- 99
2020-01-10 00:00:00 3.2 5 Oeste 8 Oeste 0 -- -- 99
2020-01-09 23:00:00 3 5 Noroeste 12 Oeste 0 -- -- 99
2020-01-09 22:00:00 2.6 5 Sudoeste 14 Oeste 0 -- -- 99
2020-01-09 21:00:00 3 6 Oeste 11 Oeste 0 -- -- 98
2020-01-09 20:00:00 3.1 5 Noroeste 8 Noroeste 0 -- -- 98
2020-01-09 19:00:00 3 6 Sudoeste 10 Sur 0 -- -- 98
2020-01-09 18:00:00 3 6 Sur 9 Sur 0 -- -- 98
2020-01-09 17:00:00 3.2 6 Sur 12 Sudeste 0 -- -- 98
2020-01-09 16:00:00 3 7 Sur 13 Sudeste 0 -- -- 98
2020-01-09 15:00:00 2.9 8 Sudeste 13 Sudeste 0 -- -- 99
2020-01-09 14:00:00 2.4 0 Calma 7 Norte 0 -- -- 99
2020-01-09 13:00:00 2.1 4 Norte 9 Este 0 -- -- 99
2020-01-09 12:00:00 2 6 Este 9 Este 0 -- -- 99
2020-01-09 11:00:00 1.7 3 Sur 6 Sudoeste 0 -- -- 99
2020-01-09 10:00:00 1.6 4 Sudoeste 9 Sudoeste 0 -- -- 99
2020-01-09 09:00:00 1.3 6 Sudoeste 12 Oeste 0 -- -- 99
2020-01-09 08:00:00 1.3 8 Sudoeste 12 Sudoeste 0 -- -- 98
2020-01-09 07:00:00 1.7 6 Sudoeste 9 Sudoeste 0 -- -- 98
2020-01-09 06:00:00 2 6 Sudoeste 9 Oeste 0 -- -- 98
2020-01-09 05:00:00 2.2 3 Sudoeste 9 Sudoeste 0 -- -- 98
2020-01-09 04:00:00 2.3 5 Sudoeste 8 Sudoeste 0 -- -- 98
2020-01-09 03:00:00 2.5 3 Este 6 Este 0 -- -- 98
2020-01-09 02:00:00 2.6 2 Nordeste 8 Sur 0 -- -- 98
2020-01-09 01:00:00 2.6 6 Sudoeste 9 Sudoeste 0 -- -- 98
2020-01-09 00:00:00 2.9 4 Sur 9 Sudeste 0 -- -- 97
2020-01-08 23:00:00 2.8 4 Oeste 8 Oeste 0 -- -- 97
2020-01-08 22:00:00 2.9 3 Noroeste 6 Sudoeste 0 -- -- 97
2020-01-08 21:00:00 3.1 2 Sudoeste 6 Oeste 0 -- -- 96
2020-01-08 20:00:00 3.2 4 Sur 7 Sudeste 0 -- -- 96
2020-01-08 19:00:00 3.3 0 Calma 10 Sudoeste 0 -- -- 96
2020-01-08 18:00:00 3.6 4 Sudoeste 8 Sudoeste 0 -- -- 96
2020-01-08 17:00:00 3.8 2 Oeste 8 Este 0 -- -- 97
2020-01-08 16:00:00 3.7 3 Nordeste 9 Este 0 -- -- 98
2020-01-08 15:00:00 3.7 3 Norte 8 Este 0 -- -- 98
2020-01-08 14:00:00 3.6 2 Noroeste 5 Este 0 -- -- 99
2020-01-08 13:00:00 3.1 2 Norte 6 Sudoeste 0 -- -- 99
2020-01-08 12:00:00 2.4 4 Sudoeste 13 Sudoeste 0 -- -- 99
2020-01-08 11:00:00 1.7 9 Sudoeste 12 Sudoeste 0 -- -- 99
2020-01-08 10:00:00 1.5 7 Sudoeste 11 Sudoeste 0 -- -- 99
2020-01-08 09:00:00 1.1 6 Sudoeste 10 Sudoeste 0 -- -- 98
2020-01-08 08:00:00 1.3 7 Sudoeste 10 Sudoeste 0 -- -- 98
2020-01-08 07:00:00 1.6 7 Sudoeste 12 Sudoeste 0 -- -- 98
2020-01-08 06:00:00 1.4 6 Sudoeste 7 Sudoeste 0 -- -- 98
2020-01-08 05:00:00 1.2 4 Sudoeste 9 Sudoeste 0 -- -- 98
2020-01-08 04:00:00 1.7 6 Sudoeste 9 Sudoeste 0 -- -- 98
2020-01-08 03:00:00 1.6 5 Sudoeste 7 Sudoeste 0 -- -- 98
2020-01-08 02:00:00 1.6 5 Sudoeste 9 Sudoeste 0 -- -- 97
2020-01-08 01:00:00 1.8 6 Sudoeste 9 Sudoeste 0 -- -- 97
2020-01-08 00:00:00 2 5 Sudoeste 10 Sudoeste 0 -- -- 97
2020-01-07 23:00:00 2.1 9 Sudoeste 13 Sudoeste 0 -- -- 97
2020-01-07 22:00:00 2.2 8 Sur 12 Sur 0 -- -- 96
2020-01-07 21:00:00 2.4 6 Sur 10 Sur 0 -- -- 95
2020-01-07 20:00:00 2.3 3 Sur 9 Este 0 -- -- 94
2020-01-07 19:00:00 2.4 5 Sur 10 Sudoeste 0 -- -- 93
2020-01-07 18:00:00 3 6 Sur 11 Sudeste 0 -- -- 91
2020-01-07 17:00:00 3.7 7 Sudeste 13 Sudeste 0 -- -- 90
2020-01-07 16:00:00 4.3 6 Sudeste 9 Este 0 -- -- 89
2020-01-07 15:00:00 4.2 2 Nordeste 10 Norte 0 -- -- 90
2020-01-07 14:00:00 3.7 4 Sudoeste 8 Oeste 0 -- -- 96
2020-01-07 13:00:00 2.5 5 Noroeste 9 Noroeste 0 -- -- 98
2020-01-07 12:00:00 1.8 5 Sudoeste 10 Sudoeste 0 -- -- 98
2020-01-07 11:00:00 1.7 6 Sudoeste 10 Sudoeste 0 -- -- 97
2020-01-07 10:00:00 1.3 7 Sudoeste 11 Sudoeste 0 -- -- 97
2020-01-07 09:00:00 1.3 8 Sudoeste 12 Sudoeste 0 -- -- 97
2020-01-07 08:00:00 1.7 8 Sudoeste 11 Oeste 0 -- -- 97
2020-01-07 07:00:00 1.7 7 Oeste 11 Oeste 0 -- -- 96
2020-01-07 06:00:00 1.8 6 Oeste 10 Oeste 0 -- -- 95
2020-01-07 05:00:00 1.9 6 Oeste 12 Oeste 0 -- -- 95
2020-01-07 04:00:00 2.2 6 Oeste 10 Oeste 0 -- -- 94
2020-01-07 03:00:00 2.2 8 Oeste 12 Oeste 0 -- -- 94
2020-01-07 02:00:00 2.1 7 Oeste 13 Oeste 0 -- -- 94
2020-01-07 01:00:00 2.3 8 Oeste 13 Oeste 0 -- -- 94
2020-01-07 00:00:00 2.4 9 Oeste 14 Oeste 0 -- -- 94
2020-01-06 23:00:00 2.6 7 Oeste 14 Oeste 0 -- -- 95
2020-01-06 22:00:00 2.7 6 Noroeste 18 Noroeste 0 -- -- 95
2020-01-06 21:00:00 2.7 12 Noroeste 21 Noroeste 0 -- -- 95
2020-01-06 20:00:00 2.7 8 Noroeste 17 Noroeste 0 -- -- 95
2020-01-06 19:00:00 2.8 7 Noroeste 13 Noroeste 0 -- -- 95
2020-01-06 18:00:00 2.8 5 Noroeste 16 Noroeste 0 -- -- 95
2020-01-06 17:00:00 3 8 Noroeste 17 Oeste 0 -- -- 94
2020-01-06 16:00:00 3.3 9 Oeste 15 Oeste 0 -- -- 94
2020-01-06 15:00:00 3.3 10 Oeste 17 Oeste 0 -- -- 95
2020-01-06 14:00:00 3.3 7 Noroeste 15 Oeste 0 -- -- 95
2020-01-06 13:00:00 3.3 6 Noroeste 13 Oeste 0 -- -- 95
2020-01-06 12:00:00 3.1 4 Noroeste 10 Noroeste 0 -- -- 96
2020-01-06 11:00:00 2.9 5 Sudoeste 10 Sudoeste 0 -- -- 97
2020-01-06 10:00:00 2.7 7 Sudoeste 9 Sudoeste 0 -- -- 97